Time;durP1;ratioP1;P1;durP2;ratioP2;P2;SDS_P1;SDS_P2;PMS_P1;PMS_P2;Temp;Humidity;BMP_temperature;BMP_pressure;BME280_temperature;BME280_humidity;BME280_pressure;Samples;Min_cycle;Max_cycle;Signal;HPM_P1;HPM_P2
2023/07/09 00:00:02;;;;;;;6.60;4.97;;;23.40;1.00;;;;;;19757869;29;20523;-84
2023/07/09 00:10:04;;;;;;;7.43;4.63;;;23.20;1.00;;;;;;19744536;29;20055;-85
2023/07/09 00:20:13;;;;;;;6.63;4.63;;;23.10;1.00;;;;;;19756190;29;20051;-85
2023/07/09 00:30:17;;;;;;;7.28;4.53;;;23.00;1.00;;;;;;19751668;29;20054;-83
2023/07/09 00:40:21;;;;;;;7.25;4.55;;;22.80;1.00;;;;;;19726151;29;20642;-83
2023/07/09 00:50:59;;;;;;;8.65;4.82;;;22.70;1.00;;;;;;19720557;29;20047;-83
2023/07/09 01:01:03;;;;;;;8.52;4.40;;;22.60;1.00;;;;;;19691853;29;20474;-83
2023/07/09 01:11:08;;;;;;;10.00;4.95;;;22.60;1.00;;;;;;19751969;29;20054;-82
2023/07/09 01:21:15;;;;;;;8.13;4.65;;;22.50;1.00;;;;;;19737407;29;20058;-82
2023/07/09 01:31:16;;;;;;;7.20;5.00;;;22.50;1.00;;;;;;19748194;29;20214;-83
2023/07/09 01:41:19;;;;;;;8.32;5.05;;;22.40;1.00;;;;;;19735449;29;20058;-80
2023/07/09 01:51:20;;;;;;;7.82;5.13;;;22.30;1.00;;;;;;19731671;29;20047;-77
2023/07/09 02:01:21;;;;;;;8.32;5.30;;;22.20;1.00;;;;;;19747840;29;20062;-78
2023/07/09 02:11:22;;;;;;;9.25;5.70;;;22.30;1.00;;;;;;19746642;29;20047;-78
2023/07/09 02:21:23;;;;;;;10.77;5.82;;;22.20;1.00;;;;;;19729343;29;20050;-78
2023/07/09 02:41:35;;;;;;;7.53;5.15;;;22.10;1.00;;;;;;20215027;24;20188;-88
2023/07/09 02:51:36;;;;;;;11.02;6.15;;;22.00;1.00;;;;;;19806798;29;20043;-89
2023/07/09 03:01:37;;;;;;;9.65;5.88;;;21.80;1.00;;;;;;19797917;29;20047;-89
2023/07/09 03:11:39;;;;;;;9.50;5.78;;;21.80;1.00;;;;;;19798885;29;20046;-88
2023/07/09 03:21:40;;;;;;;9.23;5.38;;;21.60;1.00;;;;;;19767217;29;20043;-88
2023/07/09 03:31:41;;;;;;;9.02;6.05;;;21.50;1.00;;;;;;19784506;29;20046;-89
2023/07/09 03:41:42;;;;;;;8.70;5.78;;;21.50;1.00;;;;;;19793280;29;20523;-89
2023/07/09 03:51:54;;;;;;;9.15;6.53;;;21.40;1.00;;;;;;20970353;27;1220044;-87
2023/07/09 04:01:56;;;;;;;8.45;6.35;;;21.30;1.00;;;;;;20916676;28;20385;-88
2023/07/09 04:11:57;;;;;;;10.40;7.05;;;21.30;1.00;;;;;;20964730;28;20040;-89
2023/07/09 04:21:59;;;;;;;13.02;8.20;;;21.30;1.00;;;;;;20962128;28;20341;-88
2023/07/09 04:32:00;;;;;;;13.38;7.85;;;21.30;1.00;;;;;;20961113;28;20032;-88
2023/07/09 04:42:01;;;;;;;10.82;6.68;;;21.30;1.00;;;;;;20918800;28;20064;-90
2023/07/09 04:52:03;;;;;;;11.98;7.63;;;21.30;1.00;;;;;;20893307;28;20036;-90
2023/07/09 05:02:04;;;;;;;10.68;7.32;;;21.50;1.00;;;;;;20858929;28;20044;-89
2023/07/09 05:12:06;;;;;;;11.57;7.22;;;21.50;1.00;;;;;;20846498;28;20047;-89
2023/07/09 05:22:07;;;;;;;10.88;7.45;;;21.70;1.00;;;;;;20854865;28;20034;-87
2023/07/09 05:32:08;;;;;;;12.93;8.25;;;21.80;1.00;;;;;;20820497;28;20033;-88
2023/07/09 05:42:09;;;;;;;11.98;8.82;;;22.10;1.00;;;;;;20858980;28;20620;-88
2023/07/09 05:52:11;;;;;;;12.82;8.52;;;22.40;1.00;;;;;;20819196;28;20464;-88
2023/07/09 06:02:13;;;;;;;7.90;6.20;;;22.80;1.00;;;;;;20839783;28;20033;-88
2023/07/09 06:12:14;;;;;;;8.38;5.78;;;23.10;1.00;;;;;;20817427;28;20040;-88
2023/07/09 06:22:15;;;;;;;9.27;7.20;;;23.50;1.00;;;;;;20858851;28;20395;-87
2023/07/09 06:32:16;;;;;;;9.80;6.47;;;23.90;1.00;;;;;;20835490;28;20048;-93
2023/07/09 06:42:17;;;;;;;11.50;8.02;;;24.20;1.00;;;;;;20843635;28;20045;-89
2023/07/09 06:52:18;;;;;;;10.40;7.75;;;24.70;1.00;;;;;;20845806;28;20044;-89
2023/07/09 07:02:19;;;;;;;16.10;12.70;;;25.00;1.00;;;;;;20852216;28;20059;-89
2023/07/09 07:12:28;;;;;;;17.70;14.15;;;25.40;1.00;;;;;;20822351;28;20041;-88
2023/07/09 07:22:29;;;;;;;14.25;11.43;;;25.40;1.00;;;;;;20841350;28;20040;-89
2023/07/09 07:32:31;;;;;;;16.45;13.13;;;25.30;1.00;;;;;;20860965;28;20045;-86
2023/07/09 07:42:32;;;;;;;18.98;13.43;;;25.30;1.00;;;;;;20850596;28;20049;-88
2023/07/09 07:52:37;;;;;;;17.23;13.30;;;25.40;1.00;;;;;;20839756;28;20068;-87
2023/07/09 08:02:58;;;;;;;16.55;10.88;;;25.60;1.00;;;;;;20829674;28;20033;-85
2023/07/09 08:13:19;;;;;;;21.52;14.80;;;25.80;1.00;;;;;;20805890;28;20562;-87
2023/07/09 08:23:40;;;;;;;21.63;16.65;;;26.00;1.00;;;;;;20813572;28;20227;-85
2023/07/09 08:34:02;;;;;;;19.20;15.60;;;26.10;1.00;;;;;;20819413;28;20431;-85
2023/07/09 08:44:57;;;;;;;14.90;12.45;;;26.30;1.00;;;;;;20831684;28;20041;-85
2023/07/09 08:55:27;;;;;;;19.02;15.65;;;26.40;1.00;;;;;;20841405;28;20093;-85
2023/07/09 09:05:49;;;;;;;16.08;11.00;;;26.60;1.00;;;;;;20843992;28;20044;-86
2023/07/09 09:16:21;;;;;;;9.85;7.78;;;26.50;1.00;;;;;;20836833;28;20040;-84
2023/07/09 09:26:44;;;;;;;10.35;7.88;;;26.40;1.00;;;;;;20833329;28;20037;-85
2023/07/09 09:37:11;;;;;;;10.50;8.18;;;26.40;1.00;;;;;;20823478;28;20032;-84
2023/07/09 09:47:33;;;;;;;;;;;26.60;1.00;;;;;;20828792;28;20528;-85
2023/07/09 09:57:56;;;;;;;11.13;7.97;;;26.60;1.00;;;;;;20819457;28;20323;-82
2023/07/09 10:08:36;;;;;;;11.02;7.70;;;26.40;1.00;;;;;;20811091;28;20430;-84
2023/07/09 10:19:14;;;;;;;9.07;6.72;;;26.80;1.00;;;;;;20818694;28;20025;-84
2023/07/09 10:29:59;;;;;;;8.35;6.15;;;27.10;1.00;;;;;;20843055;28;20037;-84
2023/07/09 10:40:45;;;;;;;9.25;6.53;;;27.40;1.00;;;;;;20826357;28;20037;-84
2023/07/09 10:51:24;;;;;;;9.90;6.63;;;27.60;1.00;;;;;;20818925;28;20048;-84
2023/07/09 11:01:50;;;;;;;10.43;7.65;;;27.40;1.00;;;;;;20818987;28;20526;-84
2023/07/09 11:12:28;;;;;;;9.27;7.30;;;27.00;1.00;;;;;;20836223;28;20037;-84
2023/07/09 11:23:17;;;;;;;12.82;7.50;;;27.50;1.00;;;;;;20817731;28;20073;-84
2023/07/09 11:33:47;;;;;;;6.88;4.43;;;27.40;1.00;;;;;;20820183;28;20060;-84
2023/07/09 11:44:08;;;;;;;7.47;4.13;;;27.60;1.00;;;;;;20831022;28;20088;-84
2023/07/09 11:54:35;;;;;;;5.60;3.80;;;27.40;1.00;;;;;;20818837;28;20882;-84
2023/07/09 12:04:56;;;;;;;7.17;4.30;;;27.30;1.00;;;;;;20810049;28;20445;-89
2023/07/09 12:15:21;;;;;;;6.72;3.88;;;27.30;1.00;;;;;;20836328;28;21922;-88
2023/07/09 12:25:48;;;;;;;6.57;3.85;;;27.80;1.00;;;;;;20856233;28;20045;-85
2023/07/09 12:36:11;;;;;;;5.53;3.83;;;28.10;1.00;;;;;;20831862;28;20064;-85
2023/07/09 12:46:32;;;;;;;6.45;4.00;;;27.80;1.00;;;;;;20841401;28;20147;-87
2023/07/09 12:56:55;;;;;;;6.88;4.03;;;27.60;1.00;;;;;;20844572;28;20045;-85
2023/07/09 13:07:34;;;;;;;4.80;1.92;;;27.60;1.00;;;;;;20831936;28;20041;-86
2023/07/09 13:18:05;;;;;;;5.18;2.85;;;28.40;1.00;;;;;;20834124;28;20108;-89
2023/07/09 13:28:31;;;;;;;7.05;3.28;;;28.00;1.00;;;;;;20851978;28;20044;-86
2023/07/09 13:38:52;;;;;;;7.15;3.25;;;27.10;1.00;;;;;;20847270;28;20025;-90
2023/07/09 13:49:17;;;;;;;6.45;3.17;;;26.10;1.00;;;;;;20837582;28;20664;-88
2023/07/09 13:59:39;;;;;;;6.00;2.88;;;25.50;1.00;;;;;;20843990;28;20041;-87
2023/07/09 14:10:02;;;;;;;9.70;3.47;;;25.20;1.00;;;;;;20830788;28;20033;-87
2023/07/09 14:20:24;;;;;;;9.25;4.15;;;24.80;1.00;;;;;;20829104;28;20668;-89
2023/07/09 14:30:48;;;;;;;8.07;4.13;;;24.40;1.00;;;;;;20831591;28;20060;-89
2023/07/09 14:41:21;;;;;;;8.80;5.35;;;24.00;1.00;;;;;;20856121;28;20029;-90
2023/07/09 14:51:43;;;;;;;20.92;9.18;;;23.80;1.00;;;;;;20847640;23;20053;-41
2023/07/09 15:02:43;;;;;;;13.90;8.00;;;22.80;1.00;;;;;;20619547;28;20065;-41
2023/07/09 15:13:04;;;;;;;9.77;5.75;;;21.30;70.20;;;;;;20609595;28;20145;-41
2023/07/09 15:23:28;;;;;;;7.93;4.15;;;20.90;99.90;;;;;;20615875;28;20057;-41
2023/07/09 15:33:49;;;;;;;10.38;5.13;;;20.80;99.90;;;;;;20614574;28;20157;-41
2023/07/09 15:44:15;;;;;;;9.55;5.45;;;20.70;99.90;;;;;;20612836;28;20133;-41
2023/07/09 15:54:37;;;;;;;8.40;5.97;;;20.60;99.90;;;;;;20541526;28;20050;-41
2023/07/09 16:04:44;;;;;;;11.00;6.35;;;20.70;99.90;;;;;;20500143;28;20065;-41
2023/07/09 16:14:45;;;;;;;9.80;6.27;;;20.70;99.90;;;;;;20509138;28;20042;-41
2023/07/09 16:24:46;;;;;;;9.55;6.72;;;20.70;99.90;;;;;;20497986;28;20046;-41
2023/07/09 16:34:47;;;;;;;12.70;6.72;;;20.90;99.90;;;;;;20515121;28;20450;-41
2023/07/09 16:44:48;;;;;;;10.30;6.95;;;21.00;99.90;;;;;;20488440;28;20053;-41
2023/07/09 16:54:49;;;;;;;9.98;6.85;;;21.10;99.90;;;;;;20495478;28;20154;-41
2023/07/09 17:04:51;;;;;;;11.48;7.22;;;21.10;99.90;;;;;;20524288;28;20039;-41
2023/07/09 17:14:52;;;;;;;10.10;7.55;;;21.00;99.90;;;;;;20527821;28;20434;-41
2023/07/09 17:24:54;;;;;;;10.63;7.47;;;20.90;99.90;;;;;;20519992;28;20053;-41
2023/07/09 17:34:55;;;;;;;12.65;8.07;;;20.70;99.90;;;;;;20504500;28;20160;-41
2023/07/09 17:44:56;;;;;;;10.82;8.30;;;20.60;99.90;;;;;;20522842;28;20046;-41
2023/07/09 17:54:57;;;;;;;11.05;7.90;;;20.50;99.90;;;;;;20492994;28;20063;-41
2023/07/09 18:04:58;;;;;;;12.68;8.70;;;20.50;99.90;;;;;;20507529;28;20059;-41
2023/07/09 18:14:59;;;;;;;11.45;8.32;;;20.50;99.90;;;;;;20498827;28;20506;-41
2023/07/09 18:25:00;;;;;;;10.70;7.75;;;20.50;99.90;;;;;;20499865;28;20047;-41
2023/07/09 18:35:32;;;;;;;12.45;8.73;;;20.50;99.90;;;;;;20502573;28;20039;-41
2023/07/09 18:45:33;;;;;;;13.02;8.68;;;20.50;99.90;;;;;;20496585;28;20554;-41
2023/07/09 18:55:34;;;;;;;10.93;7.85;;;20.50;99.90;;;;;;20556275;28;20065;-41
2023/07/09 19:05:35;;;;;;;13.30;9.15;;;20.50;99.90;;;;;;20516484;28;20053;-41
2023/07/09 19:15:38;;;;;;;11.30;8.18;;;20.50;99.90;;;;;;20515180;28;20042;-41
2023/07/09 19:25:39;;;;;;;11.57;7.38;;;20.50;99.90;;;;;;20546738;28;20521;-42
2023/07/09 19:35:40;;;;;;;16.98;7.90;;;20.40;99.90;;;;;;20483343;28;20132;-41
2023/07/09 19:45:44;;;;;;;13.60;6.78;;;20.30;99.90;;;;;;20485256;28;21545;-41
2023/07/09 19:55:46;;;;;;;11.95;6.70;;;20.30;99.90;;;;;;20556875;28;20074;-41
2023/07/09 20:05:47;;;;;;;11.07;6.72;;;20.40;99.90;;;;;;20553939;28;20122;-41
2023/07/09 20:15:49;;;;;;;8.13;5.47;;;20.40;99.90;;;;;;20562974;28;20958;-43
2023/07/09 20:25:52;;;;;;;8.60;4.60;;;20.40;99.90;;;;;;20578103;28;20031;-44
2023/07/09 20:35:53;;;;;;;11.70;4.47;;;20.30;99.90;;;;;;20594486;28;20655;-43
2023/07/09 20:45:55;;;;;;;8.60;5.00;;;20.00;99.90;;;;;;20598949;28;20038;-44
2023/07/09 20:55:58;;;;;;;6.72;3.78;;;19.80;99.90;;;;;;20592020;28;20039;-44
2023/07/09 21:05:59;;;;;;;6.60;3.45;;;19.70;99.90;;;;;;20590332;28;20580;-44
2023/07/09 21:16:01;;;;;;;6.15;4.20;;;19.50;99.90;;;;;;20595824;28;20038;-44
2023/07/09 21:26:02;;;;;;;5.75;3.17;;;19.40;99.90;;;;;;20597151;28;20101;-44
2023/07/09 21:36:04;;;;;;;7.63;4.40;;;19.20;99.90;;;;;;20594558;28;20034;-44
2023/07/09 21:46:23;;;;;;;6.78;4.10;;;19.10;99.90;;;;;;20585884;28;20125;-44
2023/07/09 21:56:24;;;;;;;10.90;6.40;;;19.10;99.90;;;;;;20580725;28;20073;-44
2023/07/09 22:06:25;;;;;;;13.65;8.55;;;19.00;99.90;;;;;;20582032;28;20491;-44
2023/07/09 22:16:26;;;;;;;12.93;8.70;;;19.10;99.90;;;;;;20589242;28;20038;-44
2023/07/09 22:26:28;;;;;;;10.25;6.38;;;19.20;99.90;;;;;;20578637;28;20144;-44
2023/07/09 22:36:29;;;;;;;11.55;5.70;;;19.10;99.90;;;;;;20575657;28;20066;-43
2023/07/09 22:46:30;;;;;;;8.18;5.00;;;18.90;99.90;;;;;;20579740;28;20080;-43
2023/07/09 22:56:31;;;;;;;8.80;4.88;;;18.90;99.90;;;;;;20579909;28;20503;-43
2023/07/09 23:06:33;;;;;;;7.00;4.53;;;18.80;99.90;;;;;;20576380;28;20066;-44
2023/07/09 23:16:34;;;;;;;6.85;3.65;;;18.70;84.90;;;;;;20583126;28;20110;-44
2023/07/09 23:26:39;;;;;;;6.20;3.40;;;18.70;48.60;;;;;;20583687;28;20039;-44
2023/07/09 23:36:41;;;;;;;6.47;2.72;;;18.50;72.40;;;;;;20577818;28;20573;-44
2023/07/09 23:46:42;;;;;;;5.45;2.55;;;18.50;79.00;;;;;;20505432;28;20073;-44
2023/07/09 23:56:46;;;;;;;5.53;2.50;;;18.40;99.90;;;;;;20502345;28;20051;-44
